AirNav   Advertisement
 
 1048 users online  

2J5 Millen Airport
Millen, Georgia, USA

GOING TO MILLEN?


FAA INFORMATION EFFECTIVE 20 JULY 2017

Location

FAA Identifier: 2J5
Lat/Long: 32-53-34.9000N / 081-57-54.8000W
32-53.581667N / 081-57.913333W
32.8930278 / -81.9652222
(estimated)
Elevation: 240.4 ft. / 73.3 m (surveyed)
Variation: 05W (2000)
From city: 5 miles N of MILLEN, GA
Time zone: UTC -4 (UTC -5 during Standard Time)
Zip code: 30822

Airport Operations

Airport use: Open to the public
Activation date: 08/1967
Control tower: no
ARTCC: ATLANTA CENTER
FSS: MACON FLIGHT SERVICE STATION
NOTAMs facility: MCN (NOTAM-D service available)
Attendance: UNATNDD
Wind indicator: lighted
Segmented circle: yes
Lights: DUSK-2200. MIRL, REIL AND PAPI RY 17/35 OPERATES DUSK-2200; AFTER 2200 ACTVT - CTAF.
Beacon: white-green (lighted land airport)
Operates sunset to sunrise.

Airport Communications

CTAF: 122.9
AUGUSTA APPROACH: 126.8
AUGUSTA DEPARTURE: 126.8

Nearby radio navigation aids

VOR radial/distance  VOR name  Freq  Var
ALDr259/(34.6)ALLENDALE VOR116.7001W

 
NDB name  Hdg/Dist  Freq  Var  ID
MILLENat field20505WLNH .-.. -. ....
SYLVANIA312/23.824504WJYL .--- -.-- .-..
EMANUEL COUNTY067/28.130906WEEX . . -..-
EMORY181/34.238504WEMR . -- .-.

Airport Services

Fuel available: 100LL JET-A
Parking: tiedowns
Airframe service: NONE
Powerplant service: NONE
Bottled oxygen: NONE
Bulk oxygen: NONE

Runway Information

Runway 17/35

Dimensions: 5001 x 75 ft. / 1524 x 23 m
Surface: asphalt, in good condition
Weight bearing capacity: 
Single wheel: 16.5
Runway edge lights: medium intensity
RUNWAY 17  RUNWAY 35
Latitude: 32-53.983643N32-53.178385N
Longitude: 081-58.018257W081-57.807823W
Elevation: 240.3 ft.221.2 ft.
Gradient: 0.2%0.2%
Traffic pattern: rightleft
Runway heading: 173 magnetic, 168 true353 magnetic, 348 true
Markings: nonprecision, in good conditionnonprecision, in good condition
Visual slope indicator: 2-light PAPI on right (3.00 degrees glide path)2-light PAPI on left (3.00 degrees glide path)
Runway end identifier lights: yesyes
Touchdown point: yes, no lightsyes, no lights

Airport Ownership and Management from official FAA records

Ownership: Publicly-owned
Owner: JENKINS CO
JENKINS CO COURTHOUSE
MILLEN, GA 30442
Phone 478-982-2563
Manager: GRADY LANE
PO BOX 797
MILLEN, GA 30442
Phone 706-871-8432

Airport Operational Statistics

Aircraft operations: avg 38/week *
50% transient general aviation
50% local general aviation
* for 12-month period ending 01 December 2015

Additional Remarks

DEER ON & INVOF ARPT.

Instrument Procedures

NOTE: All procedures below are presented as PDF files. If you need a reader for these files, you should download the free Adobe Reader.

NOT FOR NAVIGATION. Please procure official charts for flight.
FAA instrument procedures published for use between 20 July 2017 at 0901Z and 17 August 2017 at 0900Z.

 
IAPs - Instrument Approach Procedures
RNAV (GPS) RWY 17   download (206KB)
RNAV (GPS) RWY 35   download (218KB)
NDB RWY 17   download (175KB)
NOTE: Special Take-Off Minimums/Departure Procedures apply   download (286KB)

Other nearby airports with instrument procedures:

KBXG - Burke County Airport (9 nm N)
KJYL - Plantation Airpark (24 nm SE)
KSBO - East Georgia Regional Airport (27 nm SW)
KTBR - Statesboro-Bulloch County Airport (27 nm SE)
KAGS - Augusta Regional Airport at Bush Field (29 nm N)
 
Loc | Ops | Rwys | IFR | FBO | Links
Com | Nav | Svcs | Stats | Notes


 
Area around 2J5 (Millen Airport)
 
Road maps at: MapQuest Bing Google
 
Aerial photo
WARNING: Photo may not be current or correct
Aerial photo of 2J5 (Millen Airport)
Photo taken 27-Sep-2016
looking north.

Do you have a better or more recent aerial photo of Millen Airport that you would like to share? If so, please send us your photo.

 
Sectional chart

 
Airport distance calculator
Flying to Millen Airport? Find the distance to fly.

From to 2J5

Sunrise and sunset
Times for 25-Jul-2017
 Local
(UTC-4)
 Zulu
(UTC)
Morning civil twilight06:1010:10
Sunrise06:3810:38
Sunset20:3100:31
Evening civil twilight20:5800:58

Current date and time
Zulu (UTC)  26-Jul-2017 00:29:08
Local (UTC-4)  25-Jul-2017 20:29:08
 
METAR
KJYL 
24nm SE 
260015Z AUTO 00000KT 10SM -RA SCT050 BKN070 OVC085 23/23 A3007 RMK AO2 LTG DSNT N AND S T02310231
KSBO 
27nm SW 
260015Z AUTO 01003KT 10SM -RA SCT120 23/23 A3009 RMK AO2 LTG DSNT NE AND SE
KTBR 
27nm SE 
260015Z AUTO 00000KT 7SM -RA SCT070 OVC090 24/24 A3006 RMK AO2 LTG DSNT S T02350235
KAGS 
28nm N 
260002Z 17007KT 6SM -TSRA BR FEW040 SCT049 BKN070 24/22 A3007 RMK AO2 LTG DSNT ALQDS P0001 T02390222
KDNL 
35nm N 
260011Z AUTO 24005KT 10SM TS FEW010 FEW049 24/21 A3009 RMK AO2 WSHFT 2343 LTG DSNT ALQDS RAE01 TSE2355B05 P0000 T02440211
KBNL 
36nm NE 
260015Z AUTO 26005KT 10SM CLR 26/23 A3008 RMK AO2 LTG DSNT W-NE
KCWV 
42nm S 
260015Z AUTO 00000KT 10SM OVC120 24/23 A3007 RMK AO2 LTG DSNT SE THRU SW T02410232
KOKZ 
44nm W 
260015Z AUTO 00000KT 10SM CLR 22/19 A3009 RMK AO2 LTG DSNT NE T02180192
KVDI 
46nm SW 
260015Z AUTO 00000KT 10SM OVC090 25/22 A3009 RMK AO2 LTG DSNT SE AND S
KHQU 
47nm NW 
260015Z AUTO 24004KT 10SM VCTS SCT026 29/24 A3013 RMK AO2 LTG DSNT E AND SE T02850241
TAF
KAGS 
28nm N 
252032Z 2521/2618 VRB05KT P6SM VCSH SCT040 BKN250 FM252200 VRB05KT P6SM VCTS BKN050CB BKN250 FM260200 VRB03KT P6SM SCT050 BKN150 FM261400 VRB04KT P6SM VCSH BKN025
KDNL 
35nm N 
252032Z 2521/2618 VRB05KT P6SM VCSH SCT040 BKN250 FM252200 VRB05KT P6SM VCTS BKN050CB BKN250 FM260200 VRB03KT P6SM SCT050 BKN150 FM261400 VRB04KT P6SM VCSH BKN025
NOTAMs
Click for the latest NOTAMs
NOTAMs are issued by the DoD/FAA and will open in a separate window not controlled by AirNav.

 

 
 

FBO, Fuel Providers, and Aircraft Ground Support

  
 Business Name 
 
 Contact 
 
 Services / Description 
 
Fuel Prices
 
Comments
  
Millen-Jenkins County Airport 478-982-2563
478-982-2626
[email]
Aviation fuel, Aircraft parking (ramp or tiedown), Hangar leasing / sales, Restrooms

More info about Millen-Jenkins County Airport
100LL Jet A
SS $3.75 $3.45 
 Updated 24-Jul-2017
 
   write
SS=Self service
Update Fuel Prices
 

Would you like to see your business listed on this page?

 If your business provides an interesting product or service to pilots, flight crews, aircraft, or users of the Millen Airport, you should consider listing it here.  To start the listing process, click on the button below
 
Add a business
 

Other Pages about Millen Airport

jcmservices.net/2j5info.htm
 
Update a link
 
Copyright © AirNav, LLC. All rights reserved. Privacy Policy  Contact